createdAt,value
2018-11-01T00:04:23.414Z,1.75
2018-11-01T00:09:26.933Z,1.72
2018-11-01T00:14:30.697Z,1.71
2018-11-01T00:19:33.869Z,1.81
2018-11-01T00:24:37.052Z,1.92
2018-11-01T00:29:40.194Z,1.86
2018-11-01T00:34:43.393Z,1.86
2018-11-01T00:39:46.642Z,1.89
2018-11-01T00:44:49.893Z,1.79
2018-11-01T00:49:53.152Z,1.68
2018-11-01T00:54:56.450Z,1.58
2018-11-01T00:59:59.768Z,1.53
2018-11-01T01:05:03.148Z,1.57
2018-11-01T01:10:09.180Z,1.40
2018-11-01T01:15:12.242Z,1.28
2018-11-01T01:20:15.527Z,1.23
2018-11-01T01:25:18.973Z,1.11
2018-11-01T01:30:22.183Z,1.06
2018-11-01T01:35:25.388Z,1.12
2018-11-01T01:40:28.652Z,1.22
2018-11-01T01:45:31.873Z,1.32
2018-11-01T01:50:35.179Z,1.29
2018-11-01T01:55:38.280Z,1.32
2018-11-01T02:00:42.149Z,1.23
2018-11-01T02:05:45.366Z,1.02
2018-11-01T02:10:48.599Z,0.92
2018-11-01T02:15:51.830Z,0.84
2018-11-01T02:20:54.994Z,0.73
2018-11-01T02:25:58.132Z,0.70
2018-11-01T02:31:01.351Z,0.65
2018-11-01T02:36:04.887Z,0.70
2018-11-01T02:41:08.089Z,0.70
2018-11-01T02:46:11.280Z,0.62
2018-11-01T02:51:14.933Z,0.64
2018-11-01T02:56:18.095Z,0.61
2018-11-01T03:01:21.585Z,0.66
2018-11-01T03:06:24.821Z,0.66
2018-11-01T03:11:28.037Z,0.61
2018-11-01T03:16:31.279Z,0.65
2018-11-01T03:21:34.469Z,0.80
2018-11-01T03:26:37.715Z,0.93
2018-11-01T03:31:40.749Z,0.92
2018-11-01T03:36:43.909Z,0.84
2018-11-01T03:41:47.220Z,0.88
2018-11-01T03:46:50.549Z,0.93
2018-11-01T03:51:53.831Z,0.94
2018-11-01T03:56:57.819Z,0.85
2018-11-01T04:02:01.408Z,0.75
2018-11-01T04:07:04.684Z,0.84
2018-11-01T04:12:07.959Z,0.84
2018-11-01T04:17:11.262Z,0.91
2018-11-01T04:22:14.340Z,1.02
2018-11-01T04:27:17.555Z,0.97
2018-11-01T04:32:20.805Z,0.95
2018-11-01T04:37:24.032Z,1.01
2018-11-01T04:42:27.189Z,1.02
2018-11-01T04:47:30.928Z,0.90
2018-11-01T04:52:34.079Z,0.86
2018-11-01T04:57:37.278Z,0.88
2018-11-01T05:02:40.554Z,0.89
2018-11-01T05:07:43.742Z,0.95
2018-11-01T05:12:46.982Z,1.02
2018-11-01T05:17:50.155Z,0.92
2018-11-01T05:22:53.376Z,0.86
2018-11-01T05:27:56.651Z,0.84
2018-11-01T05:32:59.814Z,0.75
2018-11-01T05:38:02.965Z,0.70
2018-11-01T05:43:06.108Z,0.74
2018-11-01T05:48:09.612Z,0.91
2018-11-01T05:53:13.302Z,0.89
2018-11-01T05:58:16.519Z,0.88
2018-11-01T06:03:19.772Z,0.78
2018-11-01T06:08:22.978Z,0.80
2018-11-01T06:13:43.124Z,0.82
2018-11-01T06:18:48.142Z,0.87
2018-11-01T06:23:52.068Z,0.89
2018-11-01T06:28:55.291Z,0.94
2018-11-01T06:33:58.512Z,1.10
2018-11-01T06:39:01.808Z,1.26
2018-11-01T06:44:05.075Z,1.43
2018-11-01T06:49:08.344Z,1.59
2018-11-01T06:54:11.518Z,1.84
2018-11-01T06:59:14.990Z,2.10
2018-11-01T07:04:18.736Z,2.46
2018-11-01T07:09:22.009Z,2.75
2018-11-01T07:14:25.347Z,2.99
2018-11-01T07:19:28.792Z,3.27
2018-11-01T07:24:32.052Z,3.74
2018-11-01T07:29:35.324Z,4.15
2018-11-01T07:34:38.498Z,4.49
2018-11-01T07:39:41.829Z,4.63
2018-11-01T07:44:45.133Z,4.73
2018-11-01T07:49:48.405Z,5.06
2018-11-01T07:54:51.813Z,5.64
2018-11-01T07:59:55.108Z,6.21
2018-11-01T08:04:58.310Z,6.72
2018-11-01T08:10:11.647Z,7.20
2018-11-01T08:15:16.332Z,7.28
2018-11-01T08:20:19.727Z,7.32
2018-11-01T08:25:28.482Z,7.36
2018-11-01T08:30:31.766Z,7.38
2018-11-01T08:35:35.116Z,7.46
2018-11-01T08:40:44.117Z,7.78
2018-11-01T08:45:47.614Z,8.09
2018-11-01T08:50:56.552Z,8.24
2018-11-01T08:56:00.723Z,8.45
2018-11-01T09:01:04.152Z,8.66
2018-11-01T09:06:07.408Z,8.99
2018-11-01T09:11:16.676Z,9.22
2018-11-01T09:16:25.281Z,10.19
2018-11-01T09:21:34.162Z,10.65
2018-11-01T09:26:37.428Z,10.88
2018-11-01T09:31:40.654Z,10.95
2018-11-01T09:36:45.127Z,11.04
2018-11-01T09:41:48.342Z,10.57
2018-11-01T09:46:52.265Z,10.26
2018-11-01T09:51:55.331Z,10.25
2018-11-01T09:56:58.659Z,10.50
2018-11-01T10:02:02.170Z,10.98
2018-11-01T10:07:05.771Z,11.70
2018-11-01T10:12:08.954Z,12.81
2018-11-01T10:17:12.478Z,13.28
2018-11-01T10:22:15.855Z,12.75
2018-11-01T10:27:20.069Z,13.23
2018-11-01T10:32:23.157Z,14.55
2018-11-01T10:37:26.444Z,16.59
2018-11-01T10:42:29.662Z,16.78
2018-11-01T10:47:32.993Z,15.66
2018-11-01T10:52:36.411Z,15.70
2018-11-01T10:57:39.620Z,14.78
2018-11-01T11:02:43.146Z,14.18
2018-11-01T11:07:46.538Z,14.12
2018-11-01T11:12:49.824Z,13.81
2018-11-01T11:17:52.958Z,13.45
2018-11-01T11:22:56.337Z,13.24
2018-11-01T11:33:09.419Z,13.06
2018-11-01T11:38:12.914Z,13.12
2018-11-01T11:43:16.384Z,13.00
2018-11-01T11:48:19.713Z,12.62
2018-11-01T11:53:23.161Z,12.43
2018-11-01T11:58:26.503Z,12.42
2018-11-01T12:03:29.848Z,12.32
2018-11-01T12:08:33.320Z,12.30
2018-11-01T12:13:36.520Z,12.31
2018-11-01T12:18:39.852Z,12.29
2018-11-01T12:23:43.062Z,12.36
2018-11-01T12:28:46.569Z,12.24
2018-11-01T12:33:50.045Z,12.19
2018-11-01T12:38:54.411Z,12.11
2018-11-01T12:43:57.603Z,12.22
2018-11-01T12:49:01.126Z,12.24
2018-11-01T12:54:04.556Z,12.20
2018-11-01T12:59:07.750Z,12.09
2018-11-01T13:04:11.016Z,12.07
2018-11-01T13:09:14.298Z,12.06
2018-11-01T13:14:17.589Z,12.05
2018-11-01T13:19:20.871Z,12.02
2018-11-01T13:24:24.065Z,11.86
2018-11-01T13:29:29.037Z,11.82
2018-11-01T13:34:32.121Z,11.81
2018-11-01T13:39:37.325Z,11.78
2018-11-01T13:44:40.645Z,11.76
2018-11-01T13:49:44.150Z,11.68
2018-11-01T13:54:47.416Z,11.67
2018-11-01T13:59:50.675Z,11.71
2018-11-01T14:04:53.888Z,11.69
2018-11-01T14:09:57.101Z,11.51
2018-11-01T14:15:00.602Z,11.50
2018-11-01T14:20:03.560Z,11.37
2018-11-01T14:25:07.552Z,11.24
2018-11-01T14:30:11.606Z,11.18
2018-11-01T14:35:15.042Z,11.10
2018-11-01T14:40:18.356Z,11.04
2018-11-01T14:45:21.643Z,11.01
2018-11-01T14:50:24.843Z,10.91
2018-11-01T14:55:29.946Z,10.77
2018-11-01T15:00:31.551Z,10.71
2018-11-01T15:05:34.776Z,10.67
2018-11-01T15:10:37.985Z,10.48
2018-11-01T15:15:41.198Z,10.26
2018-11-01T15:20:44.654Z,10.30
2018-11-01T15:25:47.810Z,10.36
2018-11-01T15:30:51.196Z,10.33
2018-11-01T15:35:54.620Z,10.09
2018-11-01T15:40:59.167Z,9.81
2018-11-01T15:46:02.359Z,9.58
2018-11-01T15:51:06.744Z,9.36
2018-11-01T15:56:10.321Z,9.21
2018-11-01T16:01:13.601Z,8.98
2018-11-01T16:06:17.009Z,8.92
2018-11-01T16:11:20.899Z,8.74
2018-11-01T16:16:24.232Z,8.66
2018-11-01T16:21:27.367Z,8.55
2018-11-01T16:26:30.527Z,8.47
2018-11-01T16:31:36.121Z,8.34
2018-11-01T16:36:40.012Z,8.26
2018-11-01T16:41:43.175Z,8.31
2018-11-01T16:46:46.576Z,8.26
2018-11-01T16:51:49.830Z,8.16
2018-11-01T16:56:53.018Z,8.09
2018-11-01T17:01:57.180Z,8.06
2018-11-01T17:07:00.600Z,7.98
2018-11-01T17:12:04.420Z,7.95
2018-11-01T17:17:07.610Z,7.93
2018-11-01T17:22:10.960Z,7.94
2018-11-01T17:27:14.359Z,7.88
2018-11-01T17:32:17.616Z,7.83
2018-11-01T17:37:21.018Z,7.73
2018-11-01T17:42:24.256Z,7.61
2018-11-01T17:47:27.572Z,7.49
2018-11-01T17:52:30.834Z,7.37
2018-11-01T17:57:34.106Z,7.23
2018-11-01T18:02:37.646Z,7.10
2018-11-01T18:07:40.908Z,7.03
2018-11-01T18:12:44.367Z,6.98
2018-11-01T18:17:47.578Z,6.89
2018-11-01T18:22:51.238Z,6.79
2018-11-01T18:27:54.549Z,6.69
2018-11-01T18:32:57.967Z,6.82
2018-11-01T18:38:01.075Z,6.85
2018-11-01T18:43:04.820Z,6.79
2018-11-01T18:48:08.298Z,6.64
2018-11-01T18:53:12.062Z,6.56
2018-11-01T18:58:15.345Z,6.43
2018-11-01T19:03:18.588Z,6.42
2018-11-01T19:08:22.258Z,6.28
2018-11-01T19:13:25.673Z,6.22
2018-11-01T19:18:28.994Z,6.19
2018-11-01T19:23:32.193Z,6.07
2018-11-01T19:28:35.517Z,6.00
2018-11-01T19:33:38.824Z,6.00
2018-11-01T19:38:42.088Z,6.16
2018-11-01T19:43:45.458Z,6.09
2018-11-01T19:48:49.284Z,6.10
2018-11-01T19:53:52.729Z,6.04
2018-11-01T19:58:55.997Z,6.11
2018-11-01T20:03:59.888Z,6.23
2018-11-01T20:09:04.167Z,6.10
2018-11-01T20:14:07.359Z,6.19
2018-11-01T20:19:11.053Z,6.42
2018-11-01T20:24:14.341Z,6.45
2018-11-01T20:29:19.570Z,6.66
2018-11-01T20:34:25.092Z,6.82
2018-11-01T20:39:30.494Z,7.05
2018-11-01T20:44:35.237Z,6.75
2018-11-01T20:49:39.843Z,6.48
2018-11-01T20:54:44.876Z,6.23
2018-11-01T20:59:50.209Z,6.02
2018-11-01T21:04:55.189Z,5.82
2018-11-01T21:09:59.696Z,5.69
2018-11-01T21:15:03.489Z,5.47
2018-11-01T21:20:06.806Z,5.23
2018-11-01T21:25:10.331Z,5.07
2018-11-01T21:30:15.435Z,5.05
2018-11-01T21:35:18.878Z,4.78
2018-11-01T21:40:21.988Z,4.69
2018-11-01T21:45:25.287Z,4.52
2018-11-01T21:50:28.483Z,4.49
2018-11-01T21:55:31.702Z,4.67
2018-11-01T22:00:34.876Z,4.75
2018-11-01T22:05:38.220Z,4.76
2018-11-01T22:10:41.500Z,4.67
2018-11-01T22:15:44.964Z,4.37
2018-11-01T22:20:48.294Z,4.18
2018-11-01T22:25:51.498Z,4.11
2018-11-01T22:30:54.787Z,4.03
2018-11-01T22:35:58.198Z,4.17
2018-11-01T22:41:01.363Z,4.24
2018-11-01T22:46:04.669Z,3.95
2018-11-01T22:51:08.823Z,3.85
2018-11-01T22:56:12.011Z,3.80
2018-11-01T23:01:15.425Z,3.77
2018-11-01T23:06:18.836Z,3.77
2018-11-01T23:11:22.060Z,3.71
2018-11-01T23:16:25.272Z,3.75
2018-11-01T23:21:28.419Z,3.67
2018-11-01T23:26:31.636Z,3.72
2018-11-01T23:31:34.795Z,3.55
2018-11-01T23:36:38.086Z,3.33
2018-11-01T23:41:42.260Z,3.20
2018-11-01T23:46:45.473Z,3.21
2018-11-01T23:51:48.736Z,3.10
2018-11-01T23:56:51.938Z,3.04
